Time;durP1;ratioP1;P1;durP2;ratioP2;P2;SDS_P1;SDS_P2;PMS_P1;PMS_P2;Temp;Humidity;BMP_temperature;BMP_pressure;BME280_temperature;BME280_humidity;BME280_pressure;Samples;Min_cycle;Max_cycle;Signal;HPM_P1;HPM_P2
2024/02/27 00:00:06;;;;;;;33.22;16.73;;;;;;;8.20;76.24;94595.91;5096807;27;20524;-81
2024/02/27 00:02:31;;;;;;;27.95;15.45;;;;;;;8.05;76.09;94596.16;5130728;27;20083;-81
2024/02/27 00:04:57;;;;;;;30.25;16.25;;;;;;;8.18;75.69;94608.13;5113854;27;20023;-81
2024/02/27 00:07:25;;;;;;;28.38;15.85;;;;;;;8.33;74.79;94601.81;5114048;27;20039;-81
2024/02/27 00:09:51;;;;;;;26.27;14.82;;;;;;;8.44;74.56;94595.78;5131756;27;20152;-81
2024/02/27 00:12:16;;;;;;;28.75;14.80;;;;;;;8.51;74.64;94609.91;5130741;27;20035;-81
2024/02/27 00:14:41;;;;;;;26.23;15.05;;;;;;;8.31;74.85;94603.69;5130840;27;20029;-82
2024/02/27 00:17:07;;;;;;;25.30;15.00;;;;;;;8.30;75.23;94609.78;5096322;28;20031;-81
2024/02/27 00:19:32;;;;;;;33.58;14.43;;;;;;;8.37;75.02;94607.56;5096607;28;20023;-81
2024/02/27 00:21:58;;;;;;;24.80;13.90;;;;;;;8.42;75.24;94618.41;5132075;27;20484;-81
2024/02/27 00:24:23;;;;;;;27.33;13.68;;;;;;;8.50;74.83;94610.88;5113505;28;20019;-81
2024/02/27 00:26:49;;;;;;;34.60;15.57;;;;;;;8.46;74.59;94591.31;5113352;28;20051;-81
2024/02/27 00:29:18;;;;;;;34.50;18.63;;;;;;;8.56;75.38;94606.97;5130709;28;20047;-81
2024/02/27 00:31:43;;;;;;;47.63;22.95;;;;;;;8.60;74.88;94613.56;5097288;28;20031;-81
2024/02/27 00:34:09;;;;;;;39.95;21.60;;;;;;;8.63;74.63;94600.38;5113496;28;20046;-82
2024/02/27 00:36:34;;;;;;;39.03;19.23;;;;;;;8.78;74.55;94612.13;5130521;28;20554;-81
2024/02/27 00:39:00;;;;;;;29.83;16.33;;;;;;;8.85;74.02;94608.09;5113357;28;20419;-85
2024/02/27 00:41:25;;;;;;;24.50;15.52;;;;;;;8.95;73.54;94608.19;5130418;28;20030;-82
2024/02/27 00:43:50;;;;;;;21.95;11.38;;;;;;;8.90;73.63;94605.97;5113308;28;20039;-81
2024/02/27 00:46:16;;;;;;;23.25;12.35;;;;;;;8.88;73.40;94602.66;5130353;28;20020;-81
2024/02/27 00:48:41;;;;;;;26.08;11.98;;;;;;;8.49;74.46;94591.91;5113305;28;20390;-81
2024/02/27 00:51:07;;;;;;;19.67;12.05;;;;;;;8.54;75.08;94607.09;5130429;28;20019;-81
2024/02/27 00:53:32;;;;;;;21.27;12.02;;;;;;;8.64;74.84;94594.25;5096236;28;20042;-81
2024/02/27 00:55:57;;;;;;;20.65;12.05;;;;;;;8.72;74.35;94605.66;5130337;28;20035;-81
2024/02/27 00:58:23;;;;;;;23.50;13.05;;;;;;;8.58;74.63;94603.34;5131420;27;20031;-81
2024/02/27 01:00:49;;;;;;;28.65;15.88;;;;;;;8.78;73.56;94609.53;5130333;28;20054;-80
2024/02/27 01:03:14;;;;;;;19.70;12.75;;;;;;;8.85;73.47;94591.72;5113300;28;20027;-81
2024/02/27 01:05:40;;;;;;;20.45;13.48;;;;;;;8.87;73.09;94597.63;5113241;28;20065;-81
2024/02/27 01:08:05;;;;;;;23.33;13.68;;;;;;;8.78;73.67;94601.75;5130092;28;20024;-81
2024/02/27 01:10:31;;;;;;;22.20;13.90;;;;;;;8.71;73.90;94592.81;5096078;28;20023;-80
2024/02/27 01:12:56;;;;;;;20.90;13.40;;;;;;;8.66;73.97;94597.53;5113191;28;20035;-81
2024/02/27 01:15:22;;;;;;;21.60;13.90;;;;;;;8.48;74.74;94595.44;5112940;28;20056;-80
2024/02/27 01:17:47;;;;;;;22.35;13.23;;;;;;;8.46;74.78;94591.31;5130050;28;20051;-81
2024/02/27 01:20:13;;;;;;;20.27;12.55;;;;;;;8.41;75.45;94591.72;5113592;27;20035;-81
2024/02/27 01:22:38;;;;;;;20.17;12.65;;;;;;;8.45;75.44;94595.69;5099599;27;20023;-81
2024/02/27 01:25:04;;;;;;;24.70;14.13;;;;;;;8.29;75.95;94579.66;5135197;27;20027;-81
2024/02/27 01:27:32;;;;;;;19.42;12.65;;;;;;;8.42;75.67;94590.75;5116625;27;20090;-82
2024/02/27 01:29:57;;;;;;;20.60;13.15;;;;;;;8.60;75.37;94591.06;5135008;27;20042;-81
2024/02/27 01:32:23;;;;;;;20.13;12.55;;;;;;;8.47;75.65;94578.28;5133906;27;20476;-81
2024/02/27 01:34:49;;;;;;;24.52;13.77;;;;;;;8.50;75.20;94577.22;5116622;27;20423;-80
2024/02/27 01:37:14;;;;;;;21.65;13.52;;;;;;;8.56;75.28;94587.09;5133665;27;20027;-81
2024/02/27 01:39:40;;;;;;;18.83;12.80;;;;;;;8.42;75.12;94562.28;5133696;27;20488;-81
2024/02/27 01:42:05;;;;;;;19.58;11.82;;;;;;;8.62;75.00;94593.56;5099445;27;20431;-81
2024/02/27 01:44:30;;;;;;;16.48;11.68;;;;;;;8.53;75.30;94578.75;5134732;27;20027;-81
2024/02/27 01:46:56;;;;;;;17.23;12.18;;;;;;;8.56;75.06;94578.50;5116308;27;20019;-81
2024/02/27 01:49:22;;;;;;;19.92;13.60;;;;;;;8.46;75.11;94568.84;5116306;27;20027;-79
2024/02/27 01:51:47;;;;;;;18.20;13.05;;;;;;;8.69;74.41;94579.16;5134755;27;20485;-81
2024/02/27 01:54:15;;;;;;;21.80;14.07;;;;;;;8.56;74.74;94573.31;5116260;27;20035;-80
2024/02/27 01:56:41;;;;;;;19.95;13.02;;;;;;;8.57;74.46;94575.78;5099115;27;20019;-81
2024/02/27 01:59:06;;;;;;;21.38;13.05;;;;;;;8.54;75.03;94575.22;5133189;27;20043;-82
2024/02/27 02:01:33;;;;;;;20.27;12.50;;;;;;;8.54;74.85;94563.06;5098986;27;20043;-80
2024/02/27 02:03:58;;;;;;;17.45;12.65;;;;;;;8.54;74.25;94559.66;5116094;27;20039;-81
2024/02/27 02:06:24;;;;;;;20.52;12.63;;;;;;;8.55;74.99;94580.25;5115877;27;20027;-81
2024/02/27 02:08:49;;;;;;;19.88;13.23;;;;;;;8.60;74.41;94567.75;5116024;27;20041;-81
2024/02/27 02:11:14;;;;;;;19.92;12.45;;;;;;;8.57;74.42;94573.19;5132884;27;20031;-81
2024/02/27 02:13:40;;;;;;;18.85;12.65;;;;;;;8.61;74.48;94574.59;5134207;27;20035;-81
2024/02/27 02:16:06;;;;;;;19.45;13.23;;;;;;;8.55;74.78;94579.44;5115745;27;20023;-81
2024/02/27 02:18:31;;;;;;;19.80;13.57;;;;;;;8.47;75.17;94573.09;5098537;27;20046;-81
2024/02/27 02:20:56;;;;;;;18.73;11.98;;;;;;;8.45;74.56;94549.09;5098621;27;20432;-81
2024/02/27 02:23:22;;;;;;;22.58;12.90;;;;;;;8.39;74.86;94559.94;5132672;27;20480;-81
2024/02/27 02:25:48;;;;;;;17.45;11.57;;;;;;;8.54;74.78;94572.63;5134006;27;20400;-82
2024/02/27 02:28:16;;;;;;;22.58;12.90;;;;;;;8.62;74.59;94565.06;5115550;27;20047;-82
2024/02/27 02:30:42;;;;;;;17.50;11.68;;;;;;;8.57;74.89;94577.56;5115915;27;20555;-81
2024/02/27 02:33:10;;;;;;;16.88;12.48;;;;;;;8.56;74.90;94587.09;5115480;27;20028;-81
2024/02/27 02:35:35;;;;;;;18.00;12.75;;;;;;;8.43;74.53;94569.09;5115795;27;20062;-81
2024/02/27 02:38:01;;;;;;;18.45;12.90;;;;;;;8.46;75.50;94586.97;5098351;27;20031;-81
2024/02/27 02:40:26;;;;;;;19.05;13.23;;;;;;;8.43;75.10;94576.84;5115399;27;20026;-82
2024/02/27 02:42:52;;;;;;;19.88;13.00;;;;;;;8.41;75.27;94583.94;5132539;27;20485;-82
2024/02/27 02:45:17;;;;;;;18.08;12.95;;;;;;;8.36;75.74;94591.19;5132226;27;20023;-82
2024/02/27 02:47:43;;;;;;;17.90;13.00;;;;;;;8.32;75.59;94573.44;5115305;27;20472;-81
2024/02/27 02:50:08;;;;;;;18.55;12.52;;;;;;;8.57;74.58;94578.38;5115184;27;20061;-82
2024/02/27 02:52:34;;;;;;;20.60;12.70;;;;;;;8.41;74.89;94581.34;5115263;27;20381;-81
2024/02/27 02:55:00;;;;;;;21.95;12.63;;;;;;;8.57;74.56;94603.44;5132323;27;20033;-82
2024/02/27 02:57:25;;;;;;;18.95;12.93;;;;;;;8.54;74.67;94596.72;5115096;27;20568;-82
2024/02/27 02:59:51;;;;;;;19.25;12.73;;;;;;;8.62;74.34;94606.50;5098152;27;20046;-82
2024/02/27 03:02:17;;;;;;;18.85;12.95;;;;;;;8.54;74.31;94611.44;5115050;27;20555;-82
2024/02/27 03:04:43;;;;;;;17.25;12.50;;;;;;;8.43;74.68;94594.97;5115049;27;20023;-83
2024/02/27 03:07:08;;;;;;;18.65;12.75;;;;;;;8.31;75.24;94598.50;5131897;27;20115;-82
2024/02/27 03:09:33;;;;;;;17.60;12.52;;;;;;;8.33;75.14;94604.38;5114936;27;20023;-82
2024/02/27 03:12:00;;;;;;;20.48;13.35;;;;;;;8.35;75.19;94607.66;5097756;27;20035;-82
2024/02/27 03:14:25;;;;;;;18.60;12.48;;;;;;;8.52;74.50;94605.56;5114750;27;20031;-81
2024/02/27 03:16:50;;;;;;;18.67;13.00;;;;;;;8.47;74.71;94604.16;5131938;27;20031;-82
2024/02/27 03:19:16;;;;;;;20.10;12.35;;;;;;;8.46;75.00;94612.03;5132978;27;20088;-82
2024/02/27 03:21:41;;;;;;;18.80;12.93;;;;;;;8.31;74.59;94593.31;5132846;27;20400;-82
2024/02/27 03:24:07;;;;;;;16.85;12.63;;;;;;;8.26;75.03;94611.78;5114489;27;20042;-82
2024/02/27 03:26:33;;;;;;;19.27;12.68;;;;;;;7.99;76.10;94617.28;5097252;27;20031;-82
2024/02/27 03:28:58;;;;;;;22.63;12.60;;;;;;;8.15;76.03;94613.56;5114512;27;20027;-82
2024/02/27 03:31:24;;;;;;;19.73;12.48;;;;;;;8.07;75.86;94617.53;5114239;27;20023;-82
2024/02/27 03:33:49;;;;;;;17.27;12.57;;;;;;;8.10;75.82;94613.88;5131527;27;20035;-82
2024/02/27 03:36:15;;;;;;;17.63;12.63;;;;;;;8.00;75.99;94616.38;5114161;27;20023;-82
2024/02/27 03:38:41;;;;;;;19.67;13.52;;;;;;;8.10;75.88;94613.06;5131303;27;20038;-80
2024/02/27 03:41:14;;;;;;;20.52;13.30;;;;;;;8.06;75.62;94626.25;5097308;27;20023;-82
2024/02/27 03:43:40;;;;;;;20.27;13.35;;;;;;;8.04;75.84;94622.94;5113762;27;20047;-81
2024/02/27 03:46:05;;;;;;;17.13;13.25;;;;;;;8.02;75.52;94603.31;5131283;27;20023;-81
2024/02/27 03:48:31;;;;;;;17.65;12.30;;;;;;;8.12;75.86;94626.72;5113922;27;20039;-82
2024/02/27 03:50:56;;;;;;;19.58;12.90;;;;;;;8.03;75.53;94618.72;5132321;27;20030;-81
2024/02/27 03:53:22;;;;;;;19.25;12.32;;;;;;;8.01;76.06;94623.19;5113916;27;20032;-82
2024/02/27 03:55:47;;;;;;;19.48;12.82;;;;;;;8.02;76.23;94627.44;5096978;27;20035;-82
2024/02/27 03:58:13;;;;;;;17.17;11.73;;;;;;;7.90;76.47;94615.41;5114005;27;20031;-81
2024/02/27 04:00:38;;;;;;;19.67;13.27;;;;;;;8.00;76.37;94629.31;5130976;27;20031;-82
2024/02/27 04:03:04;;;;;;;20.00;12.65;;;;;;;7.98;76.90;94628.59;5113996;27;20080;-81
2024/02/27 04:05:29;;;;;;;20.48;13.05;;;;;;;7.96;76.96;94627.06;5113890;27;20382;-82
2024/02/27 04:07:54;;;;;;;21.88;13.35;;;;;;;8.02;76.66;94632.59;5096773;27;20496;-82
2024/02/27 04:10:20;;;;;;;20.13;13.15;;;;;;;7.92;76.94;94628.22;5113712;27;20027;-82
2024/02/27 04:12:45;;;;;;;19.17;12.90;;;;;;;7.76;77.26;94607.88;5096774;27;20473;-82
2024/02/27 04:15:11;;;;;;;19.20;12.65;;;;;;;7.92;77.05;94616.13;5113622;28;20492;-82
2024/02/27 04:17:36;;;;;;;18.58;12.30;;;;;;;7.91;76.90;94619.66;5130454;27;20475;-81
2024/02/27 04:20:01;;;;;;;16.75;11.82;;;;;;;8.14;76.33;94627.44;5128874;27;20046;-82
2024/02/27 04:22:27;;;;;;;18.23;12.48;;;;;;;8.05;75.74;94632.38;5111176;28;20027;-82
2024/02/27 04:24:52;;;;;;;17.80;12.48;;;;;;;8.18;75.96;94631.44;5112869;28;20108;-82
2024/02/27 04:27:18;;;;;;;19.33;12.98;;;;;;;8.42;75.01;94645.13;5112339;28;20058;-82
2024/02/27 04:29:43;;;;;;;18.15;12.93;;;;;;;8.42;74.94;94649.47;5113696;28;20019;-82
2024/02/27 04:32:10;;;;;;;20.67;12.65;;;;;;;8.34;74.73;94637.09;5131039;28;20042;-82
2024/02/27 04:34:36;;;;;;;17.48;11.80;;;;;;;8.31;74.99;94646.84;5132139;27;20103;-82
2024/02/27 04:37:01;;;;;;;18.52;12.63;;;;;;;8.47;74.63;94642.19;5131039;28;20027;-82
2024/02/27 04:39:27;;;;;;;17.45;12.23;;;;;;;8.45;74.32;94651.81;5132155;27;20477;-80
2024/02/27 04:41:52;;;;;;;20.23;12.38;;;;;;;8.31;74.92;94645.09;5097004;28;20027;-82
2024/02/27 04:44:19;;;;;;;16.77;11.65;;;;;;;8.25;75.48;94653.31;5095919;28;20481;-82
2024/02/27 04:46:44;;;;;;;22.05;13.73;;;;;;;8.39;74.60;94665.25;5113502;28;20035;-82
2024/02/27 04:49:09;;;;;;;18.00;12.15;;;;;;;8.43;74.60;94666.63;5113958;28;20038;-82
2024/02/27 04:51:35;;;;;;;20.08;12.85;;;;;;;8.38;74.60;94666.94;5113773;28;20485;-81
2024/02/27 04:54:01;;;;;;;20.70;12.50;;;;;;;8.31;75.17;94673.56;5113994;27;20023;-81
2024/02/27 04:56:26;;;;;;;17.45;13.02;;;;;;;8.21;75.82;94670.00;5135988;27;20483;-82
2024/02/27 04:58:52;;;;;;;24.30;14.02;;;;;;;8.18;75.68;94663.28;5134828;27;20031;-82
2024/02/27 05:01:17;;;;;;;21.73;12.57;;;;;;;8.20;76.09;94681.31;5100467;27;20500;-82
2024/02/27 05:03:43;;;;;;;19.23;13.27;;;;;;;8.12;76.18;94686.22;5117780;27;20038;-81
2024/02/27 05:06:08;;;;;;;19.02;13.75;;;;;;;8.15;76.49;94686.81;5134653;27;20027;-82
2024/02/27 05:08:34;;;;;;;19.67;14.07;;;;;;;8.22;75.75;94688.03;5134644;27;20027;-82
2024/02/27 05:11:00;;;;;;;17.98;12.30;;;;;;;8.28;75.30;94687.56;5100507;27;20496;-82
2024/02/27 05:13:26;;;;;;;20.17;12.27;;;;;;;8.35;75.30;94695.66;5100633;27;20038;-82
2024/02/27 05:15:51;;;;;;;17.50;11.50;;;;;;;8.48;75.02;94698.19;5100312;27;20031;-81
2024/02/27 05:18:16;;;;;;;20.20;12.30;;;;;;;8.34;75.19;94685.44;5117202;27;20035;-82
2024/02/27 05:20:42;;;;;;;21.15;13.43;;;;;;;8.29;75.15;94680.59;5100362;27;20023;-82
2024/02/27 05:23:07;;;;;;;19.38;12.57;;;;;;;8.44;74.92;94699.34;5117236;27;20031;-82
2024/02/27 05:25:33;;;;;;;18.90;12.20;;;;;;;8.43;75.06;94695.94;5100060;27;20031;-82
2024/02/27 05:27:58;;;;;;;21.33;13.18;;;;;;;8.36;75.17;94692.16;5099811;27;20470;-82
2024/02/27 05:30:24;;;;;;;16.65;11.27;;;;;;;8.56;74.67;94707.97;5117278;27;20027;-82
2024/02/27 05:32:49;;;;;;;17.83;11.23;;;;;;;8.70;74.26;94705.94;5117181;27;20484;-82
2024/02/27 05:35:15;;;;;;;19.55;12.57;;;;;;;8.68;74.40;94701.84;5134162;27;20039;-82
2024/02/27 05:37:40;;;;;;;20.58;16.23;;;;;;;8.61;74.37;94716.19;5135583;27;20054;-82
2024/02/27 05:40:24;;;;;;;18.15;13.25;;;;;;;8.45;75.12;94709.59;5134065;27;20030;-82
2024/02/27 05:42:50;;;;;;;19.80;13.00;;;;;;;8.27;76.06;94721.28;5134121;27;20492;-81
2024/02/27 05:45:15;;;;;;;18.77;12.63;;;;;;;8.54;75.33;94725.38;5116539;27;20031;-82
2024/02/27 05:47:41;;;;;;;17.42;12.52;;;;;;;8.64;74.66;94727.16;5133883;27;20053;-82
2024/02/27 05:50:07;;;;;;;23.00;13.50;;;;;;;8.52;74.88;94725.47;5116671;27;20045;-81
2024/02/27 05:52:32;;;;;;;19.35;13.05;;;;;;;8.67;74.77;94726.09;5133856;27;20027;-82
2024/02/27 05:54:58;;;;;;;20.90;13.27;;;;;;;8.63;74.71;94725.47;5135028;27;20031;-82
2024/02/27 05:57:23;;;;;;;17.67;12.23;;;;;;;8.83;74.13;94734.34;5099461;27;20023;-82
2024/02/27 05:59:49;;;;;;;19.80;13.30;;;;;;;8.74;73.60;94722.06;5135015;27;20080;-83
2024/02/27 06:02:15;;;;;;;21.63;13.15;;;;;;;8.69;73.86;94742.31;5134879;27;20408;-81
2024/02/27 06:04:40;;;;;;;18.50;12.32;;;;;;;8.73;74.33;94744.56;5133414;27;20027;-81
2024/02/27 06:07:05;;;;;;;20.83;12.65;;;;;;;8.75;74.13;94730.66;5132919;27;20381;-82
2024/02/27 06:09:31;;;;;;;18.45;12.30;;;;;;;9.03;74.10;94744.91;5133625;27;20031;-82
2024/02/27 06:11:56;;;;;;;16.85;12.40;;;;;;;8.94;74.36;94749.03;5099236;27;20080;-82
2024/02/27 06:14:22;;;;;;;18.30;12.18;;;;;;;8.97;73.82;94735.00;5134576;27;20104;-82
2024/02/27 06:16:48;;;;;;;20.30;12.10;;;;;;;9.10;74.05;94735.72;5134612;27;20094;-82
2024/02/27 06:19:13;;;;;;;19.17;12.52;;;;;;;8.99;74.00;94730.53;5133022;27;20416;-81
2024/02/27 06:24:22;;;;;;;14.45;10.80;;;;;;;9.43;71.38;94758.16;5133440;27;20042;-82
2024/02/27 06:26:48;;;;;;;16.52;11.15;;;;;;;9.40;71.93;94764.41;5132940;27;20035;-82
2024/02/27 06:29:13;;;;;;;16.90;9.68;;;;;;;9.43;70.21;94746.97;5133012;27;20446;-82
2024/02/27 06:31:39;;;;;;;15.70;8.98;;;;;;;9.55;68.91;94761.53;5115913;27;20534;-82
2024/02/27 06:34:05;;;;;;;12.95;9.18;;;;;;;9.52;69.76;94764.38;5132875;27;20024;-81
2024/02/27 06:36:31;;;;;;;12.40;9.25;;;;;;;9.80;68.84;94774.19;5115744;27;20088;-82
2024/02/27 06:38:57;;;;;;;18.15;13.30;;;;;;;9.94;69.44;94777.44;5133991;27;20031;-82
2024/02/27 06:41:23;;;;;;;22.52;16.58;;;;;;;9.91;69.19;94756.94;5115613;27;20041;-82
2024/02/27 06:43:49;;;;;;;22.05;16.80;;;;;;;10.65;67.17;94783.72;5098865;27;20031;-81
2024/02/27 06:46:15;;;;;;;21.70;14.98;;;;;;;11.54;64.67;94786.56;5115551;27;20115;-82
2024/02/27 06:48:40;;;;;;;21.90;16.58;;;;;;;12.10;62.77;94772.13;5134260;27;20420;-80
2024/02/27 06:51:07;;;;;;;20.42;14.68;;;;;;;12.74;59.68;94783.69;5115689;27;20071;-83
2024/02/27 06:53:33;;;;;;;19.83;13.80;;;;;;;13.77;56.73;94800.19;5098733;27;20035;-83
2024/02/27 06:55:58;;;;;;;20.23;15.02;;;;;;;14.36;55.10;94797.97;5098368;27;20027;-83
2024/02/27 06:58:24;;;;;;;22.15;15.15;;;;;;;14.71;52.48;94779.66;5115248;27;20050;-83
2024/02/27 07:00:49;;;;;;;21.63;15.30;;;;;;;15.19;51.68;94788.78;5133764;27;20026;-83
2024/02/27 07:03:15;;;;;;;20.50;14.43;;;;;;;15.07;52.10;94803.13;5132089;27;20107;-83
2024/02/27 07:05:40;;;;;;;24.70;15.93;;;;;;;14.29;53.93;94790.75;5115384;27;20035;-84
2024/02/27 07:08:06;;;;;;;23.00;15.30;;;;;;;14.01;55.31;94807.44;5132350;27;20046;-83
2024/02/27 07:10:32;;;;;;;19.60;14.75;;;;;;;14.82;52.56;94798.69;5115191;27;20040;-84
2024/02/27 07:12:57;;;;;;;21.63;15.25;;;;;;;15.38;51.09;94802.63;5115115;27;20024;-83
2024/02/27 07:15:23;;;;;;;24.85;16.30;;;;;;;15.71;50.17;94794.91;5115133;27;20580;-84
2024/02/27 07:17:48;;;;;;;25.42;16.20;;;;;;;15.80;50.04;94801.81;5097007;28;20034;-83
2024/02/27 07:20:14;;;;;;;25.98;15.82;;;;;;;15.98;49.25;94806.94;5132364;27;20034;-83
2024/02/27 07:22:39;;;;;;;25.25;15.88;;;;;;;15.75;50.06;94807.53;5114539;27;20080;-84
2024/02/27 07:25:05;;;;;;;26.92;17.05;;;;;;;15.77;50.45;94823.09;5114915;27;20154;-82
2024/02/27 07:27:31;;;;;;;25.40;17.83;;;;;;;15.55;50.38;94817.41;5097993;27;20077;-83
2024/02/27 07:29:56;;;;;;;26.20;17.85;;;;;;;16.11;49.28;94823.03;5114903;27;20412;-84
2024/02/27 07:32:22;;;;;;;27.17;17.70;;;;;;;16.77;47.64;94816.06;5131545;27;20030;-84
2024/02/27 07:34:47;;;;;;;23.15;16.48;;;;;;;17.33;45.34;94813.53;5114907;27;20038;-85
2024/02/27 07:37:16;;;;;;;25.73;16.73;;;;;;;16.95;45.68;94821.94;5133377;27;20023;-83
2024/02/27 07:39:41;;;;;;;26.45;16.83;;;;;;;16.93;45.29;94815.22;5131742;27;20492;-85
2024/02/27 07:42:07;;;;;;;25.70;16.35;;;;;;;17.22;44.61;94806.81;5097466;27;20034;-85
2024/02/27 07:44:32;;;;;;;21.75;14.80;;;;;;;17.84;42.85;94814.81;5114603;27;20023;-85
2024/02/27 07:46:58;;;;;;;28.15;16.33;;;;;;;18.91;40.61;94808.88;5097517;27;20023;-84
2024/02/27 07:49:23;;;;;;;22.67;16.05;;;;;;;17.80;41.95;94810.91;5114544;27;20038;-86
2024/02/27 07:51:48;;;;;;;26.77;15.23;;;;;;;18.74;40.90;94822.16;5132821;27;20042;-85
2024/02/27 07:54:17;;;;;;;27.52;18.23;;;;;;;19.41;39.33;94807.38;5114408;27;20026;-86
2024/02/27 07:56:43;;;;;;;22.05;17.25;;;;;;;19.59;39.04;94812.31;5098178;27;20126;-86
2024/02/27 07:59:09;;;;;;;23.02;15.98;;;;;;;18.96;40.05;94809.97;5114296;27;20031;-85
2024/02/27 08:01:35;;;;;;;22.75;16.83;;;;;;;19.66;38.53;94794.78;5114389;27;20023;-86
2024/02/27 08:04:00;;;;;;;22.65;16.95;;;;;;;21.30;36.10;94802.88;5131472;27;20507;-87
2024/02/27 08:06:27;;;;;;;22.65;16.13;;;;;;;22.29;33.50;94802.59;5097289;27;20412;-87
2024/02/27 08:08:54;;;;;;;20.55;15.85;;;;;;;21.86;34.13;94800.97;5131366;27;20023;-87
2024/02/27 08:11:21;;;;;;;20.73;15.05;;;;;;;21.95;33.13;94811.38;5097349;27;20122;-88
2024/02/27 08:13:46;;;;;;;18.85;14.85;;;;;;;22.04;32.94;94805.75;5131263;27;20027;-86
2024/02/27 08:16:12;;;;;;;21.40;14.75;;;;;;;20.75;34.83;94802.66;5114195;28;20031;-87
2024/02/27 08:18:37;;;;;;;21.05;15.25;;;;;;;22.09;33.06;94791.91;5131206;27;20046;-86
2024/02/27 08:21:06;;;;;;;22.08;16.45;;;;;;;20.24;36.04;94800.13;5131064;27;20027;-86
2024/02/27 08:23:31;;;;;;;22.45;16.88;;;;;;;20.31;36.04;94793.09;5132453;27;20042;-87
2024/02/27 08:25:58;;;;;;;22.42;16.63;;;;;;;21.37;34.47;94796.66;5132127;27;20023;-86
2024/02/27 08:28:24;;;;;;;25.63;16.73;;;;;;;20.48;35.60;94801.59;5130872;28;20078;-87
2024/02/27 08:30:49;;;;;;;27.88;18.48;;;;;;;18.70;39.57;94805.06;5113762;28;20023;-85
2024/02/27 08:33:15;;;;;;;21.38;15.82;;;;;;;19.52;38.64;94806.94;5096915;28;20027;-87
2024/02/27 08:35:40;;;;;;;21.20;14.55;;;;;;;19.47;37.08;94785.56;5113765;28;20035;-86
2024/02/27 08:38:06;;;;;;;21.65;14.80;;;;;;;18.90;39.13;94799.34;5131049;28;20035;-86
2024/02/27 08:40:31;;;;;;;19.35;13.98;;;;;;;18.41;39.16;94803.13;5113908;28;20038;-86
2024/02/27 08:42:57;;;;;;;25.40;15.40;;;;;;;17.37;41.79;94799.88;5096526;28;20059;-85
2024/02/27 08:45:23;;;;;;;22.05;15.50;;;;;;;16.73;43.51;94793.72;5130998;28;20028;-84
2024/02/27 08:47:49;;;;;;;21.33;14.30;;;;;;;16.96;42.78;94807.81;5113812;28;20039;-84
2024/02/27 08:50:15;;;;;;;21.92;13.80;;;;;;;15.47;45.09;94788.59;5130702;28;20027;-85
2024/02/27 08:52:40;;;;;;;17.80;13.48;;;;;;;15.64;45.26;94797.31;5114099;28;20360;-85
2024/02/27 08:55:06;;;;;;;23.25;13.20;;;;;;;15.61;45.61;94808.91;5130841;28;20031;-85
2024/02/27 08:57:32;;;;;;;19.77;12.80;;;;;;;15.50;45.58;94797.91;5130382;28;20041;-85
2024/02/27 08:59:58;;;;;;;20.77;14.32;;;;;;;15.33;46.43;94812.72;5132656;27;20452;-84
2024/02/27 09:02:24;;;;;;;21.55;14.38;;;;;;;15.03;46.85;94814.84;5113738;28;20579;-84
2024/02/27 09:04:50;;;;;;;20.55;13.02;;;;;;;15.07;46.92;94808.34;5131040;28;20027;-84
2024/02/27 09:07:16;;;;;;;25.50;14.27;;;;;;;14.89;47.77;94812.78;5113418;28;20034;-85
2024/02/27 09:09:43;;;;;;;27.25;15.02;;;;;;;14.53;48.83;94818.91;5096609;28;20023;-84
2024/02/27 09:12:09;;;;;;;22.23;13.65;;;;;;;14.49;49.05;94801.84;5113773;28;20102;-84
2024/02/27 09:14:38;;;;;;;21.10;14.23;;;;;;;14.39;49.42;94797.69;5114184;28;20019;-84
2024/02/27 09:17:04;;;;;;;25.00;13.65;;;;;;;14.19;49.51;94795.22;5132073;27;20122;-83
2024/02/27 09:19:30;;;;;;;23.63;13.38;;;;;;;14.10;50.57;94803.97;5130679;28;20098;-83
2024/02/27 09:21:55;;;;;;;26.23;13.90;;;;;;;13.84;50.51;94812.50;5113557;28;20454;-83
2024/02/27 09:24:22;;;;;;;25.25;14.70;;;;;;;13.71;50.98;94817.25;5113274;28;20031;-83
2024/02/27 09:26:48;;;;;;;19.33;12.05;;;;;;;14.13;49.15;94788.00;5130403;28;20058;-84
2024/02/27 09:29:13;;;;;;;20.10;12.52;;;;;;;14.51;49.62;94810.38;5130580;27;20408;-84
2024/02/27 09:31:39;;;;;;;19.77;13.27;;;;;;;14.62;49.42;94804.09;5130425;27;20072;-84
2024/02/27 09:34:06;;;;;;;22.45;14.45;;;;;;;14.63;48.69;94797.09;5113404;28;20034;-82
2024/02/27 09:36:32;;;;;;;21.52;13.55;;;;;;;14.79;48.31;94794.56;5130326;28;20055;-84
2024/02/27 09:38:57;;;;;;;20.30;12.98;;;;;;;14.39;49.45;94790.66;5096264;28;20512;-82
2024/02/27 09:41:33;;;;;;;18.27;12.32;;;;;;;14.51;48.68;94796.47;5097404;27;20028;-84
2024/02/27 09:43:58;;;;;;;19.70;11.77;;;;;;;14.76;47.19;94794.88;5135537;27;20303;-83
2024/02/27 09:46:24;;;;;;;22.60;11.73;;;;;;;14.58;48.28;94789.69;5099817;27;20038;-84
2024/02/27 09:48:53;;;;;;;15.98;10.40;;;;;;;14.11;48.19;94792.53;5116595;27;20023;-83
2024/02/27 09:51:20;;;;;;;16.33;9.80;;;;;;;14.33;47.84;94793.88;5133752;27;20092;-84
2024/02/27 09:53:46;;;;;;;16.88;10.63;;;;;;;14.15;48.27;94783.44;5116985;27;20026;-83
2024/02/27 09:56:15;;;;;;;18.40;10.80;;;;;;;14.41;47.84;94793.13;5116787;27;20100;-83
2024/02/27 09:58:44;;;;;;;20.77;10.63;;;;;;;14.66;47.13;94774.06;5117039;27;20459;-83
2024/02/27 10:01:11;;;;;;;16.77;10.40;;;;;;;14.78;47.44;94781.66;5100031;27;20501;-83
2024/02/27 10:03:40;;;;;;;16.23;11.10;;;;;;;14.67;47.64;94783.53;5116781;27;20027;-82
2024/02/27 10:06:05;;;;;;;17.88;10.82;;;;;;;14.63;47.44;94782.22;5135001;27;20019;-82
2024/02/27 10:08:31;;;;;;;13.23;7.65;;;;;;;14.13;45.86;94774.13;5133459;27;20122;-83
2024/02/27 10:10:56;;;;;;;14.00;7.80;;;;;;;14.60;45.48;94787.75;5133583;27;20034;-81
2024/02/27 10:13:22;;;;;;;12.88;8.15;;;;;;;14.46;46.16;94777.81;5116405;27;20431;-83
2024/02/27 10:15:48;;;;;;;12.68;7.95;;;;;;;14.33;45.39;94748.66;5134739;27;20031;-81
2024/02/27 10:18:13;;;;;;;11.35;6.03;;;;;;;14.59;43.75;94785.28;5134805;27;20035;-81
2024/02/27 10:20:43;;;;;;;9.18;5.60;;;;;;;14.45;43.07;94781.38;5133527;27;20091;-82
2024/02/27 10:23:08;;;;;;;14.68;7.93;;;;;;;14.05;45.80;94751.34;5133190;27;20127;-82
2024/02/27 10:25:33;;;;;;;18.92;9.10;;;;;;;14.22;47.01;94788.88;5134548;27;20020;-83
2024/02/27 10:28:01;;;;;;;12.45;7.22;;;;;;;14.34;45.04;94781.63;5132813;27;20524;-82
2024/02/27 10:30:27;;;;;;;11.18;6.85;;;;;;;14.63;43.66;94760.50;5116613;27;20424;-82
2024/02/27 10:32:52;;;;;;;11.18;6.88;;;;;;;14.83;43.58;94769.78;5133412;27;20031;-82
2024/02/27 10:35:19;;;;;;;14.57;6.95;;;;;;;14.82;43.44;94775.13;5133078;27;20072;-82
2024/02/27 10:37:45;;;;;;;14.25;7.68;;;;;;;14.93;43.94;94769.66;5134357;27;20106;-82
2024/02/27 10:40:14;;;;;;;14.40;6.82;;;;;;;15.20;42.22;94763.44;5116003;27;20027;-82
2024/02/27 10:42:40;;;;;;;13.30;6.55;;;;;;;15.19;41.86;94762.63;5098736;27;20031;-83
2024/02/27 10:45:06;;;;;;;12.30;6.57;;;;;;;15.11;42.57;94754.72;5115732;27;20027;-82
2024/02/27 10:47:31;;;;;;;11.07;6.25;;;;;;;14.99;43.17;94763.81;5132908;27;20087;-83
2024/02/27 10:49:57;;;;;;;10.15;5.97;;;;;;;14.90;43.41;94764.72;5098404;27;20027;-83
2024/02/27 10:52:25;;;;;;;14.90;6.50;;;;;;;14.78;43.64;94752.91;5132838;27;20046;-83
2024/02/27 10:54:50;;;;;;;10.40;6.20;;;;;;;15.11;42.91;94749.50;5115732;27;20027;-83
2024/02/27 10:57:17;;;;;;;15.52;6.50;;;;;;;15.17;42.84;94748.84;5133805;27;20031;-84
2024/02/27 10:59:44;;;;;;;15.55;6.75;;;;;;;15.01;43.04;94743.53;5115718;27;20031;-83
2024/02/27 11:02:15;;;;;;;13.73;5.88;;;;;;;15.11;42.81;94741.63;5098294;27;20038;-83
2024/02/27 11:04:41;;;;;;;10.70;5.90;;;;;;;15.05;42.81;94734.41;5098798;27;20019;-83
2024/02/27 11:07:06;;;;;;;12.98;5.68;;;;;;;14.86;43.08;94737.25;5115168;27;20031;-83
2024/02/27 11:09:32;;;;;;;13.30;6.60;;;;;;;15.03;42.83;94746.84;5098318;27;20028;-84
2024/02/27 11:12:06;;;;;;;12.95;6.30;;;;;;;14.97;42.40;94739.63;5132351;27;20476;-84
2024/02/27 11:14:34;;;;;;;13.77;8.18;;;;;;;14.73;43.15;94746.31;5116620;27;20476;-83
2024/02/27 11:17:03;;;;;;;13.23;6.40;;;;;;;14.97;43.04;94750.06;5098385;27;20027;-84